Time;durP1;ratioP1;P1;durP2;ratioP2;P2;SDS_P1;SDS_P2;PMS_P1;PMS_P2;Temp;Humidity;BMP_temperature;BMP_pressure;BME280_temperature;BME280_humidity;BME280_pressure;Samples;Min_cycle;Max_cycle;Signal;HPM_P1;HPM_P2
2022/12/14 00:01:27;;;;;;;69.50;52.83;;;12.40;53.10;;;;;;4935324;28;86041;-50
2022/12/14 00:03:54;;;;;;;69.95;53.75;;;12.40;53.10;;;;;;4925360;28;84984;-52
2022/12/14 00:06:26;;;;;;;73.40;52.97;;;12.40;53.10;;;;;;4947149;28;85364;-53
2022/12/14 00:08:53;;;;;;;68.68;53.00;;;12.30;53.10;;;;;;4933880;28;84924;-51
2022/12/14 00:11:21;;;;;;;69.95;53.08;;;12.30;53.00;;;;;;4926606;28;85251;-51
2022/12/14 00:13:53;;;;;;;70.55;53.22;;;12.30;53.10;;;;;;4929763;28;85920;-50
2022/12/14 00:16:19;;;;;;;69.25;53.17;;;12.30;53.00;;;;;;4932524;28;85757;-51
2022/12/14 00:18:49;;;;;;;70.10;53.35;;;12.30;53.10;;;;;;4921102;28;88371;-49
2022/12/14 00:21:15;;;;;;;68.78;52.47;;;12.30;53.10;;;;;;4928873;28;89105;-53
2022/12/14 00:23:44;;;;;;;69.25;53.15;;;12.30;53.10;;;;;;4933652;28;88127;-51
2022/12/14 00:26:26;;;;;;;67.95;52.95;;;12.30;53.10;;;;;;4930101;28;87505;-51
2022/12/14 00:28:53;;;;;;;70.93;53.50;;;12.30;53.10;;;;;;4920888;28;85124;-48
2022/12/14 00:31:20;;;;;;;68.45;53.78;;;12.30;53.10;;;;;;4931148;28;85248;-51
2022/12/14 00:33:46;;;;;;;71.10;53.25;;;12.30;53.20;;;;;;4929062;28;85830;-50
2022/12/14 00:36:12;;;;;;;68.90;53.30;;;12.30;53.10;;;;;;4931815;28;86390;-50
2022/12/14 00:38:39;;;;;;;71.32;53.67;;;12.30;53.10;;;;;;4936300;28;85214;-51
2022/12/14 00:41:05;;;;;;;69.13;53.05;;;12.30;53.10;;;;;;4935905;28;85557;-51
2022/12/14 00:43:31;;;;;;;68.50;52.47;;;12.20;53.00;;;;;;4930229;28;84748;-53
2022/12/14 00:45:57;;;;;;;68.30;53.10;;;12.20;53.10;;;;;;4927957;28;88335;-50
2022/12/14 00:48:24;;;;;;;69.88;53.42;;;12.20;53.00;;;;;;4923534;28;85301;-51
2022/12/14 00:50:51;;;;;;;69.78;52.58;;;12.20;53.10;;;;;;4919728;28;86617;-51
2022/12/14 00:53:18;;;;;;;69.07;53.08;;;12.20;53.10;;;;;;4926908;28;85618;-50
2022/12/14 00:55:45;;;;;;;70.57;53.38;;;12.10;53.20;;;;;;4927347;28;87265;-54
2022/12/14 00:58:14;;;;;;;69.57;53.28;;;12.20;53.10;;;;;;4927788;28;89931;-48
2022/12/14 01:00:40;;;;;;;67.55;52.63;;;12.20;52.90;;;;;;4930845;28;86790;-52
2022/12/14 01:03:06;;;;;;;68.78;53.22;;;12.20;53.00;;;;;;4938945;28;86828;-49
2022/12/14 01:05:35;;;;;;;68.55;52.65;;;12.20;53.00;;;;;;4924503;28;85832;-54
2022/12/14 01:08:00;;;;;;;70.10;53.17;;;12.20;52.80;;;;;;4931497;28;87364;-52
2022/12/14 01:10:26;;;;;;;68.53;52.25;;;12.20;52.80;;;;;;4931828;28;89121;-50
2022/12/14 01:12:52;;;;;;;69.45;52.85;;;12.10;52.90;;;;;;4924798;28;88819;-50
2022/12/14 01:15:18;;;;;;;67.20;51.72;;;12.10;52.90;;;;;;4924367;28;85784;-52
2022/12/14 01:17:43;;;;;;;70.38;53.50;;;12.10;52.90;;;;;;4926859;28;85911;-52
2022/12/14 01:20:09;;;;;;;69.25;52.78;;;12.10;53.60;;;;;;4933290;28;85475;-50
2022/12/14 01:22:36;;;;;;;70.60;53.00;;;12.20;52.90;;;;;;4933972;28;86329;-52
2022/12/14 01:25:02;;;;;;;69.03;53.15;;;12.10;52.90;;;;;;4919470;28;85538;-49
2022/12/14 01:27:28;;;;;;;69.05;52.50;;;12.10;52.80;;;;;;4933924;28;85083;-49
2022/12/14 01:29:53;;;;;;;66.45;52.40;;;12.10;53.00;;;;;;4933433;28;86568;-49
2022/12/14 01:32:19;;;;;;;67.90;52.53;;;12.10;53.00;;;;;;4928921;28;88616;-51
2022/12/14 01:34:52;;;;;;;68.55;52.35;;;12.10;53.00;;;;;;4954053;28;85021;-50
2022/12/14 01:37:18;;;;;;;67.38;52.75;;;12.10;53.00;;;;;;4927555;28;85306;-51
2022/12/14 01:39:43;;;;;;;68.28;52.15;;;12.10;52.90;;;;;;4936268;28;86022;-50
2022/12/14 01:42:14;;;;;;;67.82;52.40;;;12.00;52.90;;;;;;4924115;28;90199;-50
2022/12/14 01:44:43;;;;;;;68.15;52.60;;;12.00;52.90;;;;;;4923511;28;87321;-51
2022/12/14 01:47:28;;;;;;;69.55;52.80;;;12.00;53.10;;;;;;4925330;28;84909;-52
2022/12/14 01:50:07;;;;;;;69.45;53.20;;;12.00;53.00;;;;;;4927439;28;90382;-50
2022/12/14 01:52:51;;;;;;;68.18;52.10;;;12.00;53.00;;;;;;4931041;28;85084;-50
2022/12/14 01:55:32;;;;;;;68.80;52.67;;;12.00;53.00;;;;;;4933929;28;85066;-52
2022/12/14 01:58:14;;;;;;;68.37;52.73;;;12.00;53.10;;;;;;4934469;28;86948;-49
2022/12/14 02:00:40;;;;;;;;;;;12.00;53.10;;;;;;4925044;28;86040;-49
2022/12/14 02:03:08;;;;;;;67.82;52.03;;;12.00;53.10;;;;;;4926095;28;84702;-50
2022/12/14 02:05:37;;;;;;;68.40;52.72;;;12.00;53.10;;;;;;4926262;28;85174;-52
2022/12/14 02:08:05;;;;;;;65.97;52.13;;;12.00;53.10;;;;;;4926407;28;85853;-51
2022/12/14 02:10:31;;;;;;;68.22;53.03;;;12.00;53.00;;;;;;4916698;28;88754;-49
2022/12/14 02:13:09;;;;;;;69.75;52.78;;;12.00;53.00;;;;;;4931592;28;85190;-51
2022/12/14 02:15:37;;;;;;;67.82;51.92;;;12.00;53.00;;;;;;4928335;28;85283;-51
2022/12/14 02:18:06;;;;;;;66.63;51.83;;;12.00;53.10;;;;;;4932072;28;88349;-48
2022/12/14 02:20:55;;;;;;;67.75;51.95;;;11.90;53.00;;;;;;4933225;28;85139;-50
2022/12/14 02:23:32;;;;;;;68.40;52.25;;;11.90;53.10;;;;;;4932227;28;85447;-51
2022/12/14 02:26:16;;;;;;;66.75;51.92;;;11.90;53.20;;;;;;4927248;28;85671;-50
2022/12/14 02:29:12;;;;;;;67.57;51.67;;;11.90;53.30;;;;;;4928153;28;86550;-50
2022/12/14 02:31:46;;;;;;;69.03;52.78;;;11.90;53.30;;;;;;4940222;28;84667;-50
2022/12/14 02:34:34;;;;;;;68.57;52.10;;;11.80;53.20;;;;;;4923102;28;89796;-54
2022/12/14 02:37:45;;;;;;;67.07;52.53;;;11.80;53.30;;;;;;4928225;28;84850;-49
2022/12/14 02:40:10;;;;;;;69.95;52.58;;;11.90;53.30;;;;;;4931214;28;85369;-51
2022/12/14 02:42:44;;;;;;;68.00;52.40;;;11.90;53.30;;;;;;4927004;28;88891;-49
2022/12/14 02:45:40;;;;;;;69.28;52.60;;;11.80;53.30;;;;;;4932860;28;85279;-53
2022/12/14 02:48:35;;;;;;;69.50;52.95;;;11.80;53.30;;;;;;4921233;28;85264;-50
2022/12/14 02:51:03;;;;;;;68.85;52.22;;;11.80;53.20;;;;;;4926582;28;91189;-51
2022/12/14 02:53:52;;;;;;;66.97;52.22;;;11.80;53.10;;;;;;4920850;28;91393;-52
2022/12/14 02:56:24;;;;;;;69.32;52.92;;;11.80;53.20;;;;;;4916590;28;86629;-51
2022/12/14 02:58:51;;;;;;;;;;;11.80;53.10;;;;;;4934532;28;85295;-50
2022/12/14 03:01:21;;;;;;;68.25;52.28;;;11.80;53.20;;;;;;4937729;28;85484;-52
2022/12/14 03:03:47;;;;;;;68.73;52.43;;;11.80;53.30;;;;;;4934325;28;91867;-53
2022/12/14 03:06:25;;;;;;;69.18;53.10;;;11.80;53.30;;;;;;4928128;28;85252;-52
2022/12/14 03:09:02;;;;;;;65.97;52.00;;;11.70;53.30;;;;;;4930611;28;89509;-51
2022/12/14 03:11:57;;;;;;;66.90;52.33;;;11.80;53.30;;;;;;4930772;28;84578;-48
2022/12/14 03:14:30;;;;;;;68.15;52.65;;;11.80;53.20;;;;;;4934983;28;85973;-50
2022/12/14 03:17:02;;;;;;;68.82;52.63;;;11.80;53.30;;;;;;4934811;28;89177;-48
2022/12/14 03:19:44;;;;;;;67.03;52.15;;;11.80;53.30;;;;;;4926555;28;90732;-54
2022/12/14 03:22:17;;;;;;;70.53;52.53;;;11.80;53.30;;;;;;4929359;28;85596;-49
2022/12/14 03:24:52;;;;;;;68.18;52.63;;;11.80;53.20;;;;;;4930953;28;90022;-53
2022/12/14 03:27:30;;;;;;;70.10;52.13;;;11.80;53.20;;;;;;4938131;28;85431;-53
2022/12/14 03:30:01;;;;;;;67.45;52.33;;;11.70;53.20;;;;;;4931437;28;84861;-52
2022/12/14 03:32:29;;;;;;;;;;;11.70;53.30;;;;;;4936051;28;84881;-53
2022/12/14 03:34:59;;;;;;;66.18;52.22;;;11.70;53.30;;;;;;4933127;28;84288;-53
2022/12/14 03:37:39;;;;;;;66.93;52.03;;;11.70;53.30;;;;;;4935462;28;85093;-49
2022/12/14 03:40:11;;;;;;;67.30;51.60;;;11.70;53.30;;;;;;4932609;28;87070;-51
2022/12/14 03:43:07;;;;;;;67.78;52.20;;;11.70;53.30;;;;;;4926958;28;85055;-52
2022/12/14 03:45:49;;;;;;;68.57;52.88;;;11.70;53.30;;;;;;4931860;28;85193;-51
2022/12/14 03:48:26;;;;;;;67.97;52.78;;;11.70;53.30;;;;;;4931093;28;85446;-52
2022/12/14 03:51:09;;;;;;;66.45;52.28;;;11.70;53.30;;;;;;4936060;28;85051;-49
2022/12/14 03:54:06;;;;;;;65.72;51.70;;;11.70;53.90;;;;;;4930405;28;86268;-51
2022/12/14 03:56:48;;;;;;;66.78;52.08;;;11.60;53.30;;;;;;4930596;28;86314;-52
2022/12/14 03:59:26;;;;;;;70.07;53.05;;;11.60;53.30;;;;;;4936657;28;88172;-50
2022/12/14 04:02:10;;;;;;;68.55;52.90;;;11.60;53.40;;;;;;4931650;28;84946;-49
2022/12/14 04:04:49;;;;;;;69.00;52.17;;;11.60;53.30;;;;;;4934745;28;88008;-52
2022/12/14 04:07:36;;;;;;;69.88;54.58;;;11.60;53.40;;;;;;4923590;28;90238;-52
2022/12/14 04:18:55;;;;;;;70.22;53.28;;;11.60;53.50;;;;;;4922690;28;85138;-51
2022/12/14 04:18:58;;;;;;;68.45;51.72;;;11.60;53.50;;;;;;4931880;28;85265;-49
2022/12/14 04:21:57;;;;;;;66.60;51.83;;;11.60;53.50;;;;;;4932173;28;85127;-50
2022/12/14 04:27:48;;;;;;;67.05;52.30;;;11.60;53.70;;;;;;4930178;28;84765;-53
2022/12/14 04:30:15;;;;;;;67.25;51.75;;;11.50;53.60;;;;;;4929417;28;85504;-52
2022/12/14 04:32:51;;;;;;;65.88;51.85;;;11.50;53.50;;;;;;4929869;28;84878;-53
2022/12/14 04:35:37;;;;;;;68.72;52.55;;;11.50;53.50;;;;;;4932472;28;84877;-50
2022/12/14 04:38:10;;;;;;;66.65;52.47;;;11.50;53.50;;;;;;4927192;28;86199;-53
2022/12/14 04:40:50;;;;;;;66.18;52.45;;;11.50;53.70;;;;;;4924860;28;89915;-52
2022/12/14 04:43:20;;;;;;;66.38;52.13;;;11.40;53.70;;;;;;4936973;28;86165;-49
2022/12/14 04:45:49;;;;;;;68.40;52.58;;;11.50;53.70;;;;;;4933603;28;89908;-51
2022/12/14 04:48:24;;;;;;;66.88;52.20;;;11.50;53.60;;;;;;4929483;28;85671;-50
2022/12/14 04:51:02;;;;;;;66.72;52.55;;;11.50;53.70;;;;;;4929417;28;86450;-52
2022/12/14 04:53:30;;;;;;;69.30;52.42;;;11.50;53.60;;;;;;4931172;28;88621;-50
2022/12/14 04:56:05;;;;;;;68.40;53.15;;;11.50;53.60;;;;;;4930256;28;86494;-51
2022/12/14 04:58:32;;;;;;;67.97;52.33;;;11.50;53.60;;;;;;4937183;28;91702;-50
2022/12/14 05:01:26;;;;;;;68.35;52.72;;;11.50;53.60;;;;;;4928153;28;84979;-49
2022/12/14 05:04:19;;;;;;;67.15;52.45;;;11.40;53.60;;;;;;4939355;28;84520;-52
2022/12/14 05:07:01;;;;;;;66.20;52.40;;;11.40;53.90;;;;;;4933983;28;86934;-50
2022/12/14 05:09:38;;;;;;;65.53;51.72;;;11.40;53.70;;;;;;4933013;28;88585;-50
2022/12/14 05:12:09;;;;;;;68.27;51.97;;;11.40;53.80;;;;;;4924749;28;85335;-50
2022/12/14 05:15:01;;;;;;;67.97;51.70;;;11.40;53.80;;;;;;4935130;28;85042;-52
2022/12/14 05:17:27;;;;;;;66.93;52.08;;;11.40;53.90;;;;;;4923624;28;84835;-50
2022/12/14 05:19:53;;;;;;;64.78;51.30;;;11.40;53.90;;;;;;4938296;28;85498;-54
2022/12/14 05:22:19;;;;;;;66.05;52.13;;;11.40;53.80;;;;;;4933794;28;86908;-51
2022/12/14 05:24:45;;;;;;;66.70;51.40;;;11.40;53.80;;;;;;4930691;28;85715;-51
2022/12/14 05:27:11;;;;;;;67.70;52.25;;;11.40;53.90;;;;;;4924762;28;87194;-52
2022/12/14 05:29:36;;;;;;;68.45;52.33;;;11.40;53.80;;;;;;4929190;28;87085;-48
2022/12/14 05:32:03;;;;;;;68.00;52.15;;;11.40;53.90;;;;;;4930845;28;86218;-51
2022/12/14 05:34:29;;;;;;;68.20;52.15;;;11.40;53.80;;;;;;4921998;28;87393;-51
2022/12/14 05:36:55;;;;;;;66.80;52.72;;;11.40;53.80;;;;;;4925417;28;92230;-54
2022/12/14 05:39:21;;;;;;;66.28;52.17;;;11.40;53.70;;;;;;4928889;28;89457;-50
2022/12/14 05:41:47;;;;;;;69.90;51.85;;;11.30;53.90;;;;;;4936872;28;86468;-53
2022/12/14 05:44:13;;;;;;;67.35;52.70;;;11.40;53.80;;;;;;4929614;28;85648;-49
2022/12/14 05:46:39;;;;;;;67.22;51.70;;;11.40;53.80;;;;;;4930367;28;86134;-49
2022/12/14 05:49:04;;;;;;;68.78;52.42;;;11.40;54.10;;;;;;4938423;28;85182;-53
2022/12/14 05:51:30;;;;;;;68.93;52.58;;;11.40;54.10;;;;;;4929368;28;86937;-52
2022/12/14 05:53:57;;;;;;;69.47;53.23;;;11.40;54.10;;;;;;4922522;28;85839;-50
2022/12/14 05:56:23;;;;;;;72.13;52.75;;;11.40;54.00;;;;;;4926821;28;86341;-52
2022/12/14 05:58:50;;;;;;;68.43;52.08;;;11.40;54.10;;;;;;4930576;28;85209;-53
2022/12/14 06:01:16;;;;;;;68.25;52.85;;;11.30;55.00;;;;;;4927379;28;87403;-51
2022/12/14 06:03:42;;;;;;;68.00;52.42;;;11.30;55.90;;;;;;4926972;28;86831;-54
2022/12/14 06:06:10;;;;;;;68.78;52.55;;;11.30;55.60;;;;;;4935784;28;87957;-50
2022/12/14 06:08:38;;;;;;;72.15;53.13;;;11.30;55.60;;;;;;4927684;28;90843;-50
2022/12/14 06:11:12;;;;;;;70.93;53.75;;;11.30;55.60;;;;;;4919083;28;90996;-53
2022/12/14 06:13:39;;;;;;;68.10;53.20;;;11.30;55.90;;;;;;4925425;28;85915;-51
2022/12/14 06:16:11;;;;;;;74.43;52.85;;;11.40;55.90;;;;;;4931633;28;84916;-50
2022/12/14 06:18:43;;;;;;;70.90;52.35;;;11.40;55.80;;;;;;4950607;28;84820;-52
2022/12/14 06:21:09;;;;;;;71.33;53.77;;;11.30;55.80;;;;;;4927469;28;86424;-51
2022/12/14 06:23:35;;;;;;;73.43;52.53;;;11.30;55.80;;;;;;4919821;28;85051;-49
2022/12/14 06:26:02;;;;;;;68.95;52.72;;;11.40;56.20;;;;;;4936313;28;85678;-50
2022/12/14 06:28:27;;;;;;;69.65;52.58;;;11.40;56.00;;;;;;4938241;28;87017;-50
2022/12/14 06:30:53;;;;;;;72.47;53.25;;;11.30;55.70;;;;;;4925331;28;86477;-51
2022/12/14 06:33:18;;;;;;;69.47;51.90;;;11.40;55.70;;;;;;4922407;28;86445;-53
2022/12/14 06:35:45;;;;;;;70.05;53.15;;;11.40;55.80;;;;;;4934426;28;86737;-53
2022/12/14 06:38:15;;;;;;;69.25;53.13;;;11.30;55.90;;;;;;4923223;28;89495;-54
2022/12/14 06:40:41;;;;;;;70.45;52.40;;;11.30;55.70;;;;;;4935063;28;86203;-52
2022/12/14 06:43:07;;;;;;;67.65;52.60;;;11.30;55.60;;;;;;4941683;28;85632;-54
2022/12/14 06:45:34;;;;;;;70.82;53.08;;;11.30;55.60;;;;;;4935901;28;88901;-53
2022/12/14 06:47:59;;;;;;;69.53;54.07;;;11.30;55.60;;;;;;4933589;28;89071;-52
2022/12/14 06:50:26;;;;;;;72.43;53.63;;;11.20;55.50;;;;;;4927005;28;86619;-50
2022/12/14 06:52:54;;;;;;;68.37;52.70;;;11.30;55.50;;;;;;4930902;28;85056;-52
2022/12/14 06:55:21;;;;;;;69.53;51.90;;;11.30;55.40;;;;;;4940063;28;85175;-51
2022/12/14 06:57:52;;;;;;;69.93;53.35;;;11.30;55.40;;;;;;4929531;28;85606;-50
2022/12/14 07:00:19;;;;;;;68.45;52.10;;;11.20;55.30;;;;;;4928149;28;85931;-53
2022/12/14 07:02:45;;;;;;;71.15;53.45;;;11.30;55.40;;;;;;4936043;28;85348;-52
2022/12/14 07:05:11;;;;;;;68.47;52.78;;;11.20;55.50;;;;;;4940232;28;85418;-52
2022/12/14 07:07:37;;;;;;;68.93;52.67;;;11.20;55.40;;;;;;4931551;28;84528;-52
2022/12/14 07:10:03;;;;;;;69.97;53.53;;;11.20;55.30;;;;;;4925770;28;84983;-50
2022/12/14 07:12:29;;;;;;;71.10;53.45;;;11.20;55.30;;;;;;4937561;28;89417;-53
2022/12/14 07:14:55;;;;;;;69.63;52.95;;;11.20;55.90;;;;;;4934261;28;89613;-52
2022/12/14 07:17:21;;;;;;;77.47;53.23;;;11.20;55.30;;;;;;4953460;28;86101;-50
2022/12/14 07:19:46;;;;;;;69.43;53.23;;;11.20;55.30;;;;;;4932968;28;85253;-50
2022/12/14 07:22:12;;;;;;;69.33;53.30;;;11.20;55.90;;;;;;4939133;28;84954;-51
2022/12/14 07:24:39;;;;;;;71.30;53.03;;;11.20;55.10;;;;;;4929929;28;86277;-51
2022/12/14 07:27:05;;;;;;;71.53;52.97;;;11.20;55.20;;;;;;4930465;28;86458;-51
2022/12/14 07:29:31;;;;;;;69.10;53.20;;;11.20;55.10;;;;;;4927234;28;85190;-54
2022/12/14 07:31:57;;;;;;;67.33;52.13;;;11.20;55.10;;;;;;4966019;28;85951;-51
2022/12/14 07:34:22;;;;;;;69.17;52.70;;;11.10;55.10;;;;;;4938315;28;85347;-49
2022/12/14 07:36:50;;;;;;;73.03;53.60;;;11.10;55.20;;;;;;4934874;28;85219;-52
2022/12/14 07:39:16;;;;;;;69.57;52.67;;;11.10;55.00;;;;;;4943150;28;85211;-53
2022/12/14 07:41:43;;;;;;;69.93;52.83;;;11.10;55.00;;;;;;4931836;28;85219;-54
2022/12/14 07:44:10;;;;;;;66.23;51.73;;;11.10;55.10;;;;;;4929029;28;84503;-53
2022/12/14 07:46:36;;;;;;;69.35;53.35;;;11.10;55.10;;;;;;4932066;28;85198;-50
2022/12/14 07:49:02;;;;;;;71.30;53.20;;;11.10;55.00;;;;;;4931836;28;86054;-51
2022/12/14 07:51:34;;;;;;;69.80;53.22;;;11.10;55.00;;;;;;4934219;28;85224;-51
2022/12/14 07:54:01;;;;;;;68.77;52.90;;;11.10;54.90;;;;;;4925077;28;86387;-50
2022/12/14 07:56:29;;;;;;;69.77;52.40;;;11.10;55.00;;;;;;4926653;28;85963;-48
2022/12/14 07:58:56;;;;;;;72.80;52.97;;;11.10;54.90;;;;;;4935643;28;85122;-51
2022/12/14 08:01:23;;;;;;;69.50;53.83;;;11.10;55.00;;;;;;4934781;28;86168;-52
2022/12/14 08:04:00;;;;;;;67.88;52.30;;;11.10;55.00;;;;;;4929034;28;85233;-52
2022/12/14 08:06:28;;;;;;;69.53;53.57;;;11.10;55.00;;;;;;4924937;28;90051;-51
2022/12/14 08:08:54;;;;;;;69.60;52.90;;;11.10;55.00;;;;;;4936856;28;84790;-51
2022/12/14 08:11:21;;;;;;;66.03;52.03;;;11.10;55.00;;;;;;4939100;28;85548;-50
2022/12/14 08:13:51;;;;;;;70.07;53.83;;;11.10;55.10;;;;;;4933383;28;84847;-53
2022/12/14 08:16:16;;;;;;;67.47;53.37;;;11.10;55.10;;;;;;4926983;28;88234;-53
2022/12/14 08:18:42;;;;;;;71.30;52.57;;;11.10;55.00;;;;;;4933825;28;84970;-53
2022/12/14 08:21:10;;;;;;;70.50;52.53;;;11.00;54.90;;;;;;4929449;28;84451;-52
2022/12/14 08:23:37;;;;;;;68.20;52.33;;;11.00;55.00;;;;;;4932774;28;84931;-50
2022/12/14 08:26:04;;;;;;;69.40;53.22;;;11.00;54.90;;;;;;4931600;28;85729;-52
2022/12/14 08:28:31;;;;;;;67.33;52.97;;;11.00;55.00;;;;;;4938985;28;85290;-51
2022/12/14 08:31:02;;;;;;;68.00;52.47;;;11.00;54.90;;;;;;4927616;28;85877;-49
2022/12/14 08:33:28;;;;;;;72.37;54.00;;;11.00;54.90;;;;;;4929512;28;86133;-53
2022/12/14 08:35:53;;;;;;;75.17;56.00;;;11.00;54.90;;;;;;4943850;28;84821;-50
2022/12/14 08:38:19;;;;;;;71.53;53.45;;;11.00;54.80;;;;;;4937826;28;85205;-49
2022/12/14 08:40:45;;;;;;;74.40;55.73;;;11.00;54.80;;;;;;4923180;28;88662;-53
2022/12/14 08:43:11;;;;;;;70.63;53.80;;;11.00;54.90;;;;;;4934212;28;85339;-53
2022/12/14 08:45:36;;;;;;;68.93;53.20;;;11.00;55.00;;;;;;4932399;28;85139;-50
2022/12/14 08:48:02;;;;;;;70.63;53.90;;;11.00;54.80;;;;;;4952679;28;86423;-54
2022/12/14 08:50:28;;;;;;;72.77;54.50;;;11.00;54.80;;;;;;4917362;28;85289;-50
2022/12/14 08:52:54;;;;;;;70.43;54.00;;;11.00;54.80;;;;;;4933850;28;84965;-53
2022/12/14 08:55:20;;;;;;;69.87;54.23;;;11.00;54.80;;;;;;4930890;28;85169;-50
2022/12/14 08:57:46;;;;;;;69.93;52.90;;;11.00;54.80;;;;;;4926563;28;89619;-49
2022/12/14 09:00:13;;;;;;;68.00;53.13;;;11.00;54.90;;;;;;4930500;28;86000;-51
2022/12/14 09:02:38;;;;;;;71.80;54.10;;;11.00;54.80;;;;;;4919463;28;84871;-53
2022/12/14 09:05:05;;;;;;;67.60;53.37;;;11.00;54.80;;;;;;4934010;28;85357;-54
2022/12/14 09:07:31;;;;;;;72.23;53.73;;;11.00;54.80;;;;;;4935239;28;85755;-50
2022/12/14 09:09:57;;;;;;;69.73;53.77;;;11.00;54.80;;;;;;4929645;28;84897;-52
2022/12/14 09:12:23;;;;;;;70.30;54.43;;;11.00;54.80;;;;;;4923543;28;86401;-52
2022/12/14 09:14:50;;;;;;;68.57;54.00;;;11.00;54.80;;;;;;4933038;28;85882;-53
2022/12/14 09:17:17;;;;;;;68.87;53.10;;;11.00;54.80;;;;;;4928943;28;86422;-51
2022/12/14 09:19:42;;;;;;;72.83;54.90;;;11.00;54.60;;;;;;4924325;28;85949;-51
2022/12/14 09:22:08;;;;;;;71.00;53.97;;;11.10;54.70;;;;;;4933892;28;84662;-49
2022/12/14 09:24:35;;;;;;;68.23;53.13;;;11.00;54.60;;;;;;4930538;28;86004;-50
2022/12/14 09:27:01;;;;;;;71.70;54.07;;;11.00;54.60;;;;;;4932594;28;89546;-53
2022/12/14 09:29:28;;;;;;;73.37;53.67;;;11.00;54.70;;;;;;4930172;28;84446;-48
2022/12/14 09:31:54;;;;;;;70.73;53.90;;;11.00;54.70;;;;;;4942836;28;84880;-53
2022/12/14 09:34:20;;;;;;;70.17;53.70;;;11.10;54.70;;;;;;4923695;28;85387;-51
2022/12/14 09:36:47;;;;;;;71.50;53.77;;;11.00;54.60;;;;;;4924565;28;85231;-53
2022/12/14 09:39:13;;;;;;;72.27;54.13;;;11.00;54.60;;;;;;4933316;28;85803;-50
2022/12/14 09:41:58;;;;;;;70.13;53.47;;;11.00;54.60;;;;;;4930941;28;85283;-50
2022/12/14 09:44:40;;;;;;;70.83;53.33;;;11.00;54.50;;;;;;4928982;28;85466;-53
2022/12/14 09:47:30;;;;;;;72.27;54.63;;;11.00;54.50;;;;;;4929351;28;86425;-52
2022/12/14 09:50:11;;;;;;;70.47;53.70;;;11.00;54.50;;;;;;4930993;28;85446;-52
2022/12/14 09:52:44;;;;;;;70.57;52.97;;;11.10;54.50;;;;;;4922285;28;85991;-52
2022/12/14 09:55:25;;;;;;;72.27;54.90;;;11.10;54.40;;;;;;4920239;28;90121;-50
2022/12/14 09:58:14;;;;;;;71.53;53.73;;;11.10;54.40;;;;;;4933501;28;87385;-50
2022/12/14 10:00:46;;;;;;;70.53;54.47;;;11.10;54.30;;;;;;4927139;28;85367;-53
2022/12/14 10:03:24;;;;;;;70.37;53.57;;;11.10;54.90;;;;;;4931961;28;87383;-51
2022/12/14 10:06:17;;;;;;;71.17;54.53;;;11.00;54.40;;;;;;4937641;28;85271;-53
2022/12/14 10:09:02;;;;;;;70.03;53.27;;;11.10;54.40;;;;;;4939110;28;84945;-53
2022/12/14 10:11:43;;;;;;;70.17;53.73;;;11.10;54.30;;;;;;4936566;28;85958;-54
2022/12/14 10:14:23;;;;;;;70.47;54.13;;;11.10;54.40;;;;;;4931102;28;86150;-49
2022/12/14 10:17:04;;;;;;;70.13;53.77;;;11.10;54.30;;;;;;4934536;28;86276;-53
2022/12/14 10:19:55;;;;;;;71.10;54.25;;;11.10;54.40;;;;;;4924516;28;92456;-49
2022/12/14 10:22:33;;;;;;;74.68;53.75;;;11.20;54.20;;;;;;4928489;28;85656;-54
2022/12/14 10:25:13;;;;;;;70.00;54.78;;;11.20;54.00;;;;;;4924708;28;94688;-51
2022/12/14 10:27:40;;;;;;;72.75;54.15;;;11.30;53.70;;;;;;4949328;28;86217;-52
2022/12/14 10:30:14;;;;;;;75.60;54.63;;;11.40;53.20;;;;;;4935034;28;86677;-51
2022/12/14 10:32:45;;;;;;;70.77;53.83;;;11.70;52.80;;;;;;4932248;28;85870;-52
2022/12/14 10:35:16;;;;;;;71.72;54.05;;;11.90;52.10;;;;;;4916990;28;86374;-52
2022/12/14 10:37:44;;;;;;;75.13;54.28;;;12.30;51.50;;;;;;4934961;28;86651;-51
2022/12/14 10:40:24;;;;;;;73.15;53.83;;;12.40;50.80;;;;;;4926617;28;85531;-54
2022/12/14 10:43:21;;;;;;;70.97;54.30;;;12.30;51.20;;;;;;4929863;28;85332;-52
2022/12/14 10:46:10;;;;;;;76.43;54.47;;;12.20;51.20;;;;;;4923803;28;86020;-50
2022/12/14 10:49:05;;;;;;;74.78;54.15;;;12.00;51.50;;;;;;4931652;28;85169;-49
2022/12/14 10:51:55;;;;;;;76.28;54.97;;;12.00;52.10;;;;;;4934529;28;87033;-52
2022/12/14 10:54:58;;;;;;;70.88;54.25;;;11.90;51.40;;;;;;4931404;28;85530;-50
2022/12/14 10:57:26;;;;;;;73.82;54.30;;;11.90;51.70;;;;;;4927615;28;86232;-50
2022/12/14 10:59:53;;;;;;;73.10;54.88;;;12.10;51.70;;;;;;4937756;28;86018;-52
2022/12/14 11:02:26;;;;;;;72.35;54.55;;;12.20;51.20;;;;;;4932230;28;86400;-54
2022/12/14 11:05:10;;;;;;;78.68;54.60;;;12.40;50.60;;;;;;4944105;28;86994;-53
2022/12/14 11:07:38;;;;;;;73.07;54.05;;;12.50;50.50;;;;;;4930784;28;86151;-51
2022/12/14 11:10:21;;;;;;;73.38;54.97;;;12.60;50.30;;;;;;4926500;28;85253;-52
2022/12/14 11:12:59;;;;;;;76.20;55.15;;;12.50;50.40;;;;;;4924589;28;85009;-53
2022/12/14 11:15:33;;;;;;;75.18;55.65;;;12.50;50.50;;;;;;4921575;28;87160;-50
2022/12/14 11:18:03;;;;;;;74.13;54.78;;;12.60;50.80;;;;;;4934454;28;86603;-52
2022/12/14 11:20:29;;;;;;;75.93;55.10;;;12.70;50.80;;;;;;4932906;28;85748;-52
2022/12/14 11:23:07;;;;;;;72.65;54.47;;;12.70;50.90;;;;;;4933314;28;87497;-51
2022/12/14 11:25:45;;;;;;;79.15;55.10;;;12.80;51.00;;;;;;4929644;28;88559;-51
2022/12/14 11:28:28;;;;;;;74.43;55.58;;;12.70;50.70;;;;;;4923817;28;88766;-53
2022/12/14 11:31:06;;;;;;;78.00;56.10;;;12.70;51.00;;;;;;4925984;28;85092;-50
2022/12/14 11:33:53;;;;;;;75.03;56.05;;;12.70;51.30;;;;;;4929888;28;89421;-53
2022/12/14 11:36:23;;;;;;;75.70;56.47;;;12.70;51.00;;;;;;4925246;28;87128;-51
2022/12/14 11:38:57;;;;;;;73.78;55.45;;;12.70;51.10;;;;;;4923511;28;88075;-53
2022/12/14 11:41:32;;;;;;;78.78;55.80;;;12.60;51.20;;;;;;4930818;28;86345;-50
2022/12/14 11:44:03;;;;;;;75.43;55.63;;;12.70;51.70;;;;;;4936983;28;85158;-56
2022/12/14 11:46:48;;;;;;;77.10;56.03;;;12.70;52.20;;;;;;4925995;28;88675;-51
2022/12/14 11:49:37;;;;;;;80.85;57.42;;;12.70;52.40;;;;;;4917518;28;87160;-52
2022/12/14 11:52:08;;;;;;;75.88;56.65;;;12.70;52.10;;;;;;4925857;28;85818;-52
2022/12/14 11:54:37;;;;;;;82.90;60.17;;;12.70;53.00;;;;;;4928130;28;85447;-51
2022/12/14 11:57:16;;;;;;;80.53;59.03;;;12.70;58.50;;;;;;4935626;28;85508;-50
2022/12/14 12:00:00;;;;;;;79.95;59.22;;;12.60;61.20;;;;;;4930163;28;87400;-54
2022/12/14 12:02:36;;;;;;;78.18;58.28;;;12.60;65.60;;;;;;4926013;28;89565;-55
2022/12/14 12:05:08;;;;;;;79.70;58.25;;;12.60;64.90;;;;;;4925170;28;88822;-54
2022/12/14 12:07:37;;;;;;;79.05;58.50;;;12.60;68.70;;;;;;4919976;28;85994;-54
2022/12/14 12:10:17;;;;;;;80.53;57.95;;;12.60;66.80;;;;;;4932725;28;88402;-53
2022/12/14 12:13:00;;;;;;;80.03;58.28;;;12.60;68.90;;;;;;4924740;28;85359;-52
2022/12/14 12:15:38;;;;;;;79.65;58.63;;;12.60;70.30;;;;;;4930192;28;88034;-53
2022/12/14 12:18:07;;;;;;;82.63;58.88;;;12.70;69.40;;;;;;4928659;28;85828;-54
2022/12/14 12:20:38;;;;;;;80.20;59.13;;;12.70;69.60;;;;;;4926880;28;89332;-53
2022/12/14 12:23:15;;;;;;;84.13;60.00;;;12.60;70.60;;;;;;4930544;28;85786;-51
2022/12/14 12:25:43;;;;;;;79.72;59.38;;;12.70;74.10;;;;;;4927022;28;86502;-52
2022/12/14 12:28:54;;;;;;;84.88;59.88;;;12.60;75.50;;;;;;4925555;28;86257;-53
2022/12/14 12:31:25;;;;;;;86.45;60.13;;;12.70;75.40;;;;;;4940334;28;85529;-53
2022/12/14 12:34:11;;;;;;;86.30;62.55;;;12.70;79.80;;;;;;4933090;28;85937;-53
2022/12/14 12:36:38;;;;;;;88.97;60.60;;;12.70;84.30;;;;;;4927306;28;86339;-52
2022/12/14 12:39:24;;;;;;;88.13;62.67;;;12.70;82.90;;;;;;4920501;28;87499;-51
2022/12/14 12:42:11;;;;;;;88.70;62.17;;;12.80;86.00;;;;;;4930601;28;85746;-54
2022/12/14 12:45:19;;;;;;;83.82;60.10;;;12.90;89.00;;;;;;4932189;28;87642;-55
2022/12/14 12:47:51;;;;;;;83.78;60.58;;;12.90;87.30;;;;;;4909693;28;90373;-53
2022/12/14 12:50:21;;;;;;;83.18;59.70;;;13.00;84.80;;;;;;4914309;28;85348;-51
2022/12/14 12:53:05;;;;;;;81.75;59.13;;;13.00;81.90;;;;;;4931339;28;86296;-55
2022/12/14 12:55:36;;;;;;;80.70;58.25;;;13.00;78.60;;;;;;4922813;28;87424;-50
2022/12/14 12:58:08;;;;;;;81.57;59.17;;;13.00;77.80;;;;;;4921410;28;88414;-52
2022/12/14 13:00:35;;;;;;;80.45;58.58;;;13.00;75.50;;;;;;4953074;28;85279;-54
2022/12/14 13:03:12;;;;;;;76.53;57.53;;;13.00;73.30;;;;;;4927720;28;84994;-53
2022/12/14 13:05:40;;;;;;;79.95;57.58;;;13.00;70.90;;;;;;4930202;28;85306;-51